Time;durP1;ratioP1;P1;durP2;ratioP2;P2;SDS_P1;SDS_P2;PMS_P1;PMS_P2;Temp;Humidity;BMP_temperature;BMP_pressure;BME280_temperature;BME280_humidity;BME280_pressure;Samples;Min_cycle;Max_cycle;Signal;HPM_P1;HPM_P2
2021/08/24 00:02:03;;;;;;;8.23;5.43;;;;;;;22.52;52.30;99759.22;5045963;28;20021;-48
2021/08/24 00:04:29;;;;;;;10.13;5.68;;;;;;;22.56;52.46;99761.09;5031637;28;20025;-50
2021/08/24 00:06:54;;;;;;;7.30;5.40;;;;;;;23.12;50.72;99756.31;5031175;28;20402;-49
2021/08/24 00:09:20;;;;;;;8.55;5.80;;;;;;;22.95;51.41;99756.72;5030781;28;20099;-48
2021/08/24 00:11:45;;;;;;;8.07;5.60;;;;;;;22.52;52.58;99754.59;5031361;28;20032;-51
2021/08/24 00:14:11;;;;;;;9.40;5.95;;;;;;;22.42;53.11;99754.69;5031666;28;20502;-47
2021/08/24 00:16:41;;;;;;;10.43;5.78;;;;;;;22.41;53.29;99753.88;5030903;28;20033;-49
2021/08/24 00:19:09;;;;;;;8.98;6.03;;;;;;;23.28;50.86;99754.25;5031010;28;20196;-50
2021/08/24 00:21:36;;;;;;;7.30;5.53;;;;;;;22.62;52.69;99749.13;5031189;28;20095;-50
2021/08/24 00:24:02;;;;;;;9.05;5.60;;;;;;;22.90;51.77;99748.59;5031168;28;20486;-51
2021/08/24 00:26:28;;;;;;;8.55;6.03;;;;;;;22.71;52.51;99745.78;5044908;28;20094;-51
2021/08/24 00:28:53;;;;;;;7.40;5.85;;;;;;;23.35;50.51;99746.56;5050905;28;20084;-49
2021/08/24 00:31:18;;;;;;;7.30;5.90;;;;;;;23.08;51.71;99745.22;5050746;28;20036;-48
2021/08/24 00:33:44;;;;;;;9.70;6.03;;;;;;;22.83;52.45;99749.75;5050853;28;20017;-49
2021/08/24 00:36:16;;;;;;;9.70;6.13;;;;;;;22.63;52.52;99723.59;5050725;28;20386;-48
2021/08/24 00:38:41;;;;;;;6.65;5.65;;;;;;;23.16;51.67;99750.00;5049927;28;20028;-49
2021/08/24 00:41:07;;;;;;;8.60;5.93;;;;;;;23.41;50.91;99746.22;5050183;28;20428;-48
2021/08/24 00:43:35;;;;;;;9.57;6.35;;;;;;;22.71;52.67;99730.31;5050598;28;20025;-50
2021/08/24 00:46:15;;;;;;;9.10;5.90;;;;;;;22.58;53.39;99744.53;5050816;28;20032;-49
2021/08/24 00:48:41;;;;;;;8.98;6.18;;;;;;;22.60;53.61;99742.38;5034254;28;20111;-49
2021/08/24 00:51:07;;;;;;;8.60;6.15;;;;;;;23.20;51.34;99740.19;5049436;28;20033;-48
2021/08/24 00:53:33;;;;;;;9.32;6.30;;;;;;;22.57;53.75;99742.91;5049691;28;20039;-47
2021/08/24 00:55:59;;;;;;;8.35;5.88;;;;;;;22.53;53.37;99741.88;5050967;28;20044;-50
2021/08/24 00:58:25;;;;;;;11.20;6.25;;;;;;;22.33;54.26;99740.09;5033039;28;20130;-48
2021/08/24 01:00:50;;;;;;;8.65;5.82;;;;;;;22.72;53.23;99747.41;5049738;28;20452;-48
2021/08/24 01:03:21;;;;;;;9.70;6.10;;;;;;;22.72;53.14;99748.22;5050240;28;20016;-49
2021/08/24 01:05:48;;;;;;;9.50;6.07;;;;;;;22.50;53.89;99745.13;5049495;28;20051;-50
2021/08/24 01:08:32;;;;;;;9.85;6.40;;;;;;;22.50;54.08;99743.22;5049056;28;20053;-50
2021/08/24 01:11:07;;;;;;;7.35;6.13;;;;;;;22.77;53.17;99734.63;5050889;28;20052;-51
2021/08/24 01:13:55;;;;;;;10.98;6.38;;;;;;;23.03;52.34;99737.91;5033063;28;20464;-50
2021/08/24 01:16:42;;;;;;;14.70;6.32;;;;;;;22.48;53.96;99736.47;5050496;28;20021;-49
2021/08/24 01:19:35;;;;;;;13.77;6.30;;;;;;;22.53;53.80;99737.25;5049077;28;20032;-51
2021/08/24 01:22:38;;;;;;;11.57;6.07;;;;;;;22.71;53.36;99738.44;5050224;28;20028;-51
2021/08/24 01:25:07;;;;;;;16.58;6.70;;;;;;;22.77;53.55;99733.78;5047654;28;20067;-49
2021/08/24 01:27:33;;;;;;;10.82;6.05;;;;;;;22.57;54.36;99737.50;5029022;28;20107;-49
2021/08/24 01:30:20;;;;;;;10.73;6.82;;;;;;;22.60;54.17;99723.38;5030224;28;20060;-47
2021/08/24 01:32:47;;;;;;;14.00;6.70;;;;;;;22.68;54.12;99727.38;5030201;28;20025;-47
2021/08/24 01:35:43;;;;;;;13.60;6.97;;;;;;;22.71;53.69;99726.81;5030421;28;20033;-49
2021/08/24 01:38:28;;;;;;;9.82;6.50;;;;;;;22.00;56.19;99723.47;5029022;28;20454;-47
2021/08/24 01:41:14;;;;;;;13.10;6.82;;;;;;;21.72;57.34;99717.66;5030259;28;20040;-48
2021/08/24 01:43:46;;;;;;;11.25;6.60;;;;;;;22.03;56.31;99712.09;5015238;28;20120;-47
2021/08/24 01:46:52;;;;;;;12.38;6.53;;;;;;;22.40;54.53;99719.72;5028947;28;20035;-49
2021/08/24 01:49:18;;;;;;;10.52;6.78;;;;;;;21.99;55.76;99714.56;4969332;28;20042;-47
2021/08/24 01:51:52;;;;;;;10.20;6.22;;;;;;;22.02;56.08;99719.38;5017005;28;20042;-51
2021/08/24 01:54:38;;;;;;;8.88;6.43;;;;;;;22.21;54.99;99721.44;5016487;28;20032;-48
2021/08/24 01:57:04;;;;;;;9.70;6.38;;;;;;;22.35;53.92;99718.94;5032800;28;20029;-49
2021/08/24 01:59:33;;;;;;;10.60;6.25;;;;;;;21.89;53.17;99709.16;5016216;28;20364;-48
2021/08/24 02:02:11;;;;;;;12.52;6.57;;;;;;;21.79;51.37;99707.31;5016445;28;20108;-48
2021/08/24 02:04:54;;;;;;;9.73;6.65;;;;;;;21.76;51.75;99688.94;5032652;28;20045;-50
2021/08/24 02:07:20;;;;;;;8.68;6.35;;;;;;;22.49;49.82;99695.53;5016917;28;20026;-48
2021/08/24 02:09:48;;;;;;;11.63;6.93;;;;;;;21.76;49.93;99696.25;5015779;28;20058;-47
2021/08/24 02:12:14;;;;;;;10.55;6.88;;;;;;;21.67;49.51;99690.63;5032291;28;20549;-47
2021/08/24 02:14:40;;;;;;;10.57;6.55;;;;;;;21.62;49.54;99682.50;5032353;28;20108;-47
2021/08/24 02:17:07;;;;;;;10.98;6.85;;;;;;;22.38;47.87;99686.66;5032331;28;20057;-47
2021/08/24 02:19:38;;;;;;;10.77;7.00;;;;;;;21.91;48.31;99689.94;5015857;28;20087;-50
2021/08/24 02:22:06;;;;;;;9.85;6.70;;;;;;;21.77;47.54;99684.34;5015999;28;20033;-48
2021/08/24 02:24:35;;;;;;;10.60;6.38;;;;;;;21.75;47.15;99681.09;5016120;28;20044;-50
2021/08/24 02:27:02;;;;;;;9.98;6.90;;;;;;;22.00;47.24;99686.34;5034365;28;20060;-48
2021/08/24 02:29:28;;;;;;;15.02;6.57;;;;;;;21.98;46.79;99671.47;5035912;28;20402;-48
2021/08/24 02:32:00;;;;;;;8.50;6.57;;;;;;;21.69;46.52;99683.03;5051964;28;20133;-48
2021/08/24 02:34:32;;;;;;;8.73;6.57;;;;;;;21.60;46.90;99679.28;5051862;28;20037;-50
2021/08/24 02:37:20;;;;;;;9.63;5.97;;;;;;;21.71;46.34;99680.84;5051856;28;20469;-49
2021/08/24 02:39:51;;;;;;;10.50;6.40;;;;;;;22.30;44.25;99681.06;5037323;28;20025;-51
2021/08/24 02:42:31;;;;;;;9.35;6.78;;;;;;;21.80;45.58;99681.03;5035504;28;20427;-45
2021/08/24 02:45:08;;;;;;;11.15;6.43;;;;;;;21.63;46.63;99686.84;5036380;28;20100;-49
2021/08/24 02:47:33;;;;;;;9.70;6.18;;;;;;;21.60;46.76;99681.97;5035516;28;20029;-49
2021/08/24 02:49:59;;;;;;;10.68;6.40;;;;;;;22.40;44.83;99692.59;5034989;28;20032;-48
2021/08/24 02:52:25;;;;;;;11.07;6.30;;;;;;;22.04;45.77;99683.91;5034720;28;20039;-48
2021/08/24 02:54:51;;;;;;;13.98;6.00;;;;;;;21.94;46.08;99686.69;5035032;28;20028;-48
2021/08/24 02:57:17;;;;;;;12.65;6.43;;;;;;;21.98;46.22;99685.03;5051342;28;20389;-47
2021/08/24 02:59:42;;;;;;;7.65;5.85;;;;;;;22.47;45.05;99696.91;5052885;28;20108;-48
2021/08/24 03:02:09;;;;;;;9.25;6.13;;;;;;;22.17;45.68;99683.25;5051622;28;20021;-49
2021/08/24 03:04:34;;;;;;;11.52;6.53;;;;;;;21.78;46.43;99681.34;5052282;28;20400;-47
2021/08/24 03:07:03;;;;;;;9.80;6.70;;;;;;;21.64;46.48;99681.13;5052469;28;20118;-50
2021/08/24 03:09:30;;;;;;;14.18;6.15;;;;;;;21.61;46.35;99681.69;5051315;28;20049;-49
2021/08/24 03:12:14;;;;;;;11.68;6.25;;;;;;;22.02;45.19;99694.22;5051195;28;20111;-48
2021/08/24 03:15:04;;;;;;;11.45;6.60;;;;;;;21.70;45.66;99678.41;5052440;28;20060;-48
2021/08/24 03:18:02;;;;;;;8.90;6.43;;;;;;;21.59;46.33;99681.19;5050852;28;20029;-47
2021/08/24 03:20:30;;;;;;;9.48;6.22;;;;;;;21.77;45.61;99689.75;5039624;28;20043;-47
2021/08/24 03:22:56;;;;;;;13.82;6.70;;;;;;;22.21;44.74;99681.59;5034332;28;20031;-48
2021/08/24 03:25:22;;;;;;;9.30;6.65;;;;;;;21.78;45.30;99683.22;5045744;28;20021;-47
2021/08/24 03:27:51;;;;;;;11.40;6.43;;;;;;;21.55;45.57;99680.13;5030978;28;20086;-48
2021/08/24 03:30:16;;;;;;;;;;;;;;;21.47;45.83;99677.97;5031512;28;20029;-47
2021/08/24 03:32:42;;;;;;;8.38;6.10;;;;;;;21.99;44.78;99681.22;5032028;28;19917;-47
2021/08/24 03:35:08;;;;;;;11.23;6.90;;;;;;;21.65;45.05;99681.97;5032367;28;20041;-47
2021/08/24 03:37:34;;;;;;;9.85;6.20;;;;;;;21.48;45.95;99683.09;5032719;28;20029;-48
2021/08/24 03:39:59;;;;;;;9.18;6.25;;;;;;;21.43;46.36;99674.97;5032203;28;20033;-48
2021/08/24 03:42:25;;;;;;;10.77;6.70;;;;;;;21.73;45.30;99673.25;5031986;28;20473;-48
2021/08/24 03:44:50;;;;;;;11.88;7.07;;;;;;;22.14;44.10;99677.59;5031885;28;20026;-49
2021/08/24 03:47:15;;;;;;;14.27;7.50;;;;;;;21.72;45.62;99677.03;5031949;28;20034;-48
2021/08/24 03:49:41;;;;;;;10.63;7.05;;;;;;;21.42;47.19;99673.38;5031890;28;20044;-47
2021/08/24 03:52:07;;;;;;;11.57;7.18;;;;;;;21.41;47.39;99677.16;5031708;28;20559;-48
2021/08/24 03:54:32;;;;;;;14.20;6.90;;;;;;;21.90;46.40;99675.59;5031744;28;20048;-46
2021/08/24 03:56:58;;;;;;;9.85;6.53;;;;;;;21.67;47.49;99674.38;5031809;28;20037;-49
2021/08/24 03:59:23;;;;;;;11.63;7.15;;;;;;;21.35;48.08;99678.25;5031859;28;20393;-48
2021/08/24 04:01:49;;;;;;;15.20;7.25;;;;;;;21.64;47.29;99677.63;5031446;28;20079;-47
2021/08/24 04:04:14;;;;;;;13.43;6.95;;;;;;;22.27;45.60;99676.19;5031711;28;20095;-47
2021/08/24 04:06:40;;;;;;;12.35;6.68;;;;;;;21.84;47.28;99679.44;5031753;28;20037;-47
2021/08/24 04:09:05;;;;;;;16.95;6.93;;;;;;;21.94;47.38;99684.78;5031616;28;20049;-47
2021/08/24 04:11:31;;;;;;;12.77;6.60;;;;;;;21.93;47.24;99688.56;5031452;28;20470;-47
2021/08/24 04:13:56;;;;;;;9.43;6.50;;;;;;;22.74;45.69;99682.84;5031078;28;20460;-46
2021/08/24 04:16:22;;;;;;;11.57;6.60;;;;;;;22.63;46.09;99685.63;5030710;28;20117;-49
2021/08/24 04:18:47;;;;;;;10.25;6.25;;;;;;;22.43;46.96;99686.63;5030921;28;20025;-46
2021/08/24 04:21:14;;;;;;;8.25;6.10;;;;;;;22.48;47.05;99687.69;5030749;28;20486;-48
2021/08/24 04:23:41;;;;;;;12.52;6.05;;;;;;;23.17;45.68;99681.06;5029433;28;20100;-51
2021/08/24 04:26:07;;;;;;;8.35;5.60;;;;;;;23.13;45.26;99680.03;5041949;28;20127;-48
2021/08/24 04:28:32;;;;;;;18.13;6.57;;;;;;;22.93;46.00;99677.50;5050567;28;20517;-49
2021/08/24 04:30:58;;;;;;;12.30;6.20;;;;;;;23.07;45.49;99678.47;5050515;28;20108;-47
2021/08/24 04:33:23;;;;;;;17.45;6.82;;;;;;;23.25;44.91;99684.22;5050316;28;20527;-48
2021/08/24 04:35:53;;;;;;;10.00;6.30;;;;;;;23.70;44.29;99680.13;5050609;28;20100;-50
2021/08/24 04:38:18;;;;;;;12.35;5.95;;;;;;;23.35;45.51;99676.78;5050264;28;20027;-48
2021/08/24 04:40:44;;;;;;;9.70;6.28;;;;;;;23.37;45.61;99682.72;5050146;28;20041;-51
2021/08/24 04:43:09;;;;;;;9.95;6.10;;;;;;;23.63;45.22;99687.84;5048761;28;20044;-46
2021/08/24 04:45:35;;;;;;;15.73;6.57;;;;;;;24.33;43.67;99694.47;5050282;28;20492;-50
2021/08/24 04:48:00;;;;;;;10.80;6.25;;;;;;;24.03;44.14;99684.88;5050025;28;20037;-48
2021/08/24 04:50:26;;;;;;;12.00;6.25;;;;;;;24.20;43.66;99688.72;5050392;28;20021;-50
2021/08/24 04:52:51;;;;;;;8.68;6.72;;;;;;;24.18;43.02;99685.47;5050283;28;20477;-49
2021/08/24 04:55:17;;;;;;;13.52;6.20;;;;;;;24.67;41.90;99680.63;5050035;28;20087;-50
2021/08/24 04:57:42;;;;;;;9.60;6.60;;;;;;;25.11;40.22;99679.28;5050090;28;20029;-49
2021/08/24 05:00:08;;;;;;;10.50;6.10;;;;;;;24.97;40.38;99678.47;5050524;28;20017;-49
2021/08/24 05:02:34;;;;;;;10.63;6.20;;;;;;;25.15;39.95;99679.47;5050022;28;20334;-48
2021/08/24 05:04:59;;;;;;;12.32;6.50;;;;;;;25.21;40.14;99678.28;5049973;28;20032;-48
2021/08/24 05:07:25;;;;;;;14.93;6.53;;;;;;;26.44;37.91;99680.25;5049374;28;20032;-47
2021/08/24 05:09:50;;;;;;;11.05;6.55;;;;;;;25.92;38.97;99678.72;5050567;28;20040;-48
2021/08/24 05:12:15;;;;;;;10.35;6.88;;;;;;;25.95;38.40;99677.31;5049181;28;20539;-48
2021/08/24 05:14:41;;;;;;;12.45;7.18;;;;;;;25.90;38.33;99677.41;5049448;28;20029;-51
2021/08/24 05:17:06;;;;;;;14.82;7.18;;;;;;;26.25;37.75;99677.72;5049394;28;20040;-48
2021/08/24 05:19:32;;;;;;;11.90;7.32;;;;;;;26.40;37.04;99682.00;5044516;28;20460;-47
2021/08/24 05:21:57;;;;;;;11.38;7.10;;;;;;;26.41;37.18;99683.63;5039815;28;20028;-50
2021/08/24 05:24:23;;;;;;;12.20;7.50;;;;;;;26.61;36.89;99687.78;5039924;28;20044;-49
2021/08/24 05:26:48;;;;;;;12.48;7.20;;;;;;;26.45;36.47;99688.13;5038309;28;20075;-49
2021/08/24 05:29:16;;;;;;;10.88;7.35;;;;;;;27.69;34.58;99683.69;5038020;28;20040;-48
2021/08/24 05:31:42;;;;;;;13.32;7.20;;;;;;;27.14;35.31;99681.44;5040733;28;20025;-48
2021/08/24 05:34:07;;;;;;;14.60;7.10;;;;;;;27.05;35.57;99686.06;5048810;28;20455;-49
2021/08/24 05:36:33;;;;;;;17.30;7.35;;;;;;;27.15;35.32;99685.81;5036550;28;20040;-48
2021/08/24 05:38:58;;;;;;;16.45;8.20;;;;;;;27.46;35.05;99682.22;5039137;28;20092;-47
2021/08/24 05:41:24;;;;;;;13.57;7.68;;;;;;;27.36;35.35;99687.97;5039818;28;20395;-48
2021/08/24 05:43:49;;;;;;;12.82;7.05;;;;;;;27.31;35.64;99688.94;5046633;28;20029;-49
2021/08/24 05:46:15;;;;;;;13.48;7.50;;;;;;;27.38;35.85;99692.00;5049491;28;20346;-48
2021/08/24 05:48:41;;;;;;;10.60;7.72;;;;;;;28.15;34.75;99691.66;5049665;28;20028;-50
2021/08/24 05:51:10;;;;;;;11.98;7.60;;;;;;;28.74;33.51;99696.59;5049549;28;20117;-47
2021/08/24 05:53:36;;;;;;;11.85;7.32;;;;;;;28.55;33.99;99694.22;5049556;28;20033;-47
2021/08/24 05:56:01;;;;;;;13.60;7.72;;;;;;;28.46;34.07;99691.44;5049080;28;20025;-51
2021/08/24 05:58:27;;;;;;;10.57;7.28;;;;;;;28.07;34.53;99694.06;5047723;28;20087;-48
2021/08/24 06:00:52;;;;;;;10.32;7.18;;;;;;;29.22;33.02;99699.00;5048597;28;20428;-50
2021/08/24 06:03:22;;;;;;;12.35;6.97;;;;;;;29.20;33.40;99701.25;5047816;28;20040;-49
2021/08/24 06:05:47;;;;;;;11.60;7.18;;;;;;;28.69;34.26;99694.00;5047490;28;20036;-49
2021/08/24 06:08:13;;;;;;;11.70;6.60;;;;;;;28.74;34.39;99697.38;5047156;28;20068;-49
2021/08/24 06:10:38;;;;;;;13.55;6.78;;;;;;;29.04;34.19;99692.78;5047650;28;20396;-46
2021/08/24 06:13:04;;;;;;;10.05;6.15;;;;;;;28.63;35.34;99693.38;5047804;28;20033;-51
2021/08/24 06:15:30;;;;;;;11.82;6.70;;;;;;;29.00;34.90;99694.56;5047793;28;20021;-51
2021/08/24 06:17:55;;;;;;;11.73;6.43;;;;;;;29.22;34.92;99695.47;5048664;28;20158;-49
2021/08/24 06:20:21;;;;;;;9.07;6.30;;;;;;;29.62;34.21;99701.38;5049199;28;20032;-49
2021/08/24 06:22:46;;;;;;;13.15;6.30;;;;;;;30.11;33.86;99683.63;5049435;28;20492;-49
2021/08/24 06:25:12;;;;;;;12.60;6.38;;;;;;;29.89;34.17;99693.81;5045847;28;20021;-48
2021/08/24 06:27:37;;;;;;;11.77;6.28;;;;;;;29.48;34.86;99697.28;5029534;28;20025;-48
2021/08/24 06:30:03;;;;;;;11.80;5.90;;;;;;;29.50;35.28;99693.06;5029224;28;20030;-50
2021/08/24 06:32:34;;;;;;;10.30;6.25;;;;;;;30.08;34.36;99692.50;5028725;28;20025;-50
2021/08/24 06:34:59;;;;;;;10.80;5.93;;;;;;;29.73;34.90;99682.63;5028938;28;20032;-50
2021/08/24 06:37:25;;;;;;;11.93;5.78;;;;;;;29.61;35.37;99686.06;5031288;28;20057;-51
2021/08/24 06:39:50;;;;;;;8.18;5.47;;;;;;;29.95;34.74;99694.38;5032631;28;20025;-49
2021/08/24 06:42:16;;;;;;;9.73;5.93;;;;;;;30.58;33.96;99694.34;5032258;28;20045;-49
2021/08/24 06:44:41;;;;;;;9.40;5.90;;;;;;;30.90;33.09;99683.66;5031036;28;20088;-48
2021/08/24 06:47:07;;;;;;;8.80;5.38;;;;;;;30.83;33.13;99686.16;5032410;28;20493;-49
2021/08/24 06:49:32;;;;;;;9.18;5.60;;;;;;;31.15;33.08;99685.31;5032105;28;20032;-48
2021/08/24 06:51:59;;;;;;;8.68;5.70;;;;;;;31.09;32.94;99683.94;5032261;28;20032;-56
2021/08/24 06:54:25;;;;;;;9.68;5.80;;;;;;;32.37;30.45;99688.19;5032144;28;20100;-52
2021/08/24 06:56:51;;;;;;;10.35;5.78;;;;;;;31.93;30.97;99680.66;5032138;28;20018;-51
2021/08/24 06:59:17;;;;;;;9.27;5.72;;;;;;;31.74;31.25;99683.22;5031941;28;20025;-50
2021/08/24 07:01:43;;;;;;;12.13;5.50;;;;;;;31.82;31.15;99675.97;5032345;28;20040;-52
2021/08/24 07:04:08;;;;;;;10.20;5.72;;;;;;;31.99;31.06;99683.94;5031992;28;20017;-51
2021/08/24 07:06:34;;;;;;;10.45;5.88;;;;;;;31.98;30.63;99676.03;5032462;28;20401;-51
2021/08/24 07:08:59;;;;;;;8.55;5.70;;;;;;;31.98;30.73;99674.09;5032330;28;20041;-51
2021/08/24 07:11:26;;;;;;;9.50;5.07;;;;;;;31.90;30.71;99673.06;5032197;28;20017;-52
2021/08/24 07:13:54;;;;;;;9.20;5.60;;;;;;;32.06;30.52;99675.94;5032536;28;20404;-52
2021/08/24 07:16:19;;;;;;;7.28;5.43;;;;;;;32.91;29.43;99664.81;5032185;28;20025;-52
2021/08/24 07:18:45;;;;;;;10.27;5.90;;;;;;;32.37;30.01;99668.09;5032557;28;20032;-53
2021/08/24 07:21:14;;;;;;;12.10;5.65;;;;;;;32.31;29.83;99665.63;5031348;28;20032;-48
2021/08/24 07:23:39;;;;;;;7.60;5.20;;;;;;;32.32;29.72;99652.66;5031383;28;20388;-51
2021/08/24 07:26:05;;;;;;;10.40;5.38;;;;;;;33.39;28.61;99668.34;5032074;28;20029;-52
2021/08/24 07:28:30;;;;;;;9.32;5.57;;;;;;;32.57;29.87;99658.03;5031834;28;20463;-52
2021/08/24 07:30:56;;;;;;;9.20;5.20;;;;;;;32.63;30.02;99656.63;5031890;28;20176;-51
2021/08/24 07:33:21;;;;;;;10.32;5.80;;;;;;;32.70;29.65;99651.31;5031332;28;20026;-50
2021/08/24 07:35:47;;;;;;;8.23;5.45;;;;;;;33.26;28.77;99662.16;5031623;28;20547;-51
2021/08/24 07:38:16;;;;;;;8.57;5.15;;;;;;;33.48;28.31;99660.66;5031595;28;20025;-50
2021/08/24 07:40:42;;;;;;;7.47;5.30;;;;;;;33.01;29.11;99664.25;5031569;28;20029;-51
2021/08/24 07:43:07;;;;;;;7.80;5.20;;;;;;;33.06;28.48;99658.50;5031296;28;20028;-51
2021/08/24 07:45:33;;;;;;;9.70;5.70;;;;;;;33.05;28.53;99645.88;5031428;28;20036;-52
2021/08/24 07:47:59;;;;;;;7.38;5.05;;;;;;;33.50;28.03;99655.59;5030868;28;20025;-50
2021/08/24 07:50:24;;;;;;;7.78;5.45;;;;;;;33.20;28.65;99651.75;5031528;28;20030;-52
2021/08/24 07:52:50;;;;;;;8.63;5.65;;;;;;;33.17;28.60;99645.00;5031598;28;20035;-49
2021/08/24 07:55:16;;;;;;;9.52;5.03;;;;;;;33.27;28.91;99647.19;5031556;28;20131;-49
2021/08/24 07:57:41;;;;;;;10.20;5.78;;;;;;;33.50;28.45;99646.53;5031355;28;20025;-52
2021/08/24 08:00:07;;;;;;;9.38;5.75;;;;;;;34.15;27.33;99643.13;5031421;28;20032;-50
2021/08/24 08:02:33;;;;;;;7.97;5.68;;;;;;;34.12;27.20;99640.31;5031533;28;20032;-52
2021/08/24 08:04:58;;;;;;;12.43;5.68;;;;;;;33.82;27.70;99638.16;5031249;28;20026;-49
2021/08/24 08:07:24;;;;;;;7.40;5.65;;;;;;;33.43;28.32;99647.16;5030691;28;20034;-49
2021/08/24 08:09:49;;;;;;;10.07;5.53;;;;;;;34.30;27.16;99635.16;5031351;28;20025;-49
2021/08/24 08:12:16;;;;;;;11.50;5.57;;;;;;;34.00;28.17;99652.31;5031046;28;20350;-52
2021/08/24 08:14:41;;;;;;;8.85;5.40;;;;;;;33.82;28.18;99646.44;5029480;28;20477;-50
2021/08/24 08:17:10;;;;;;;12.48;5.70;;;;;;;33.65;28.19;99639.38;5030901;28;20042;-50
2021/08/24 08:19:36;;;;;;;13.07;6.00;;;;;;;34.16;26.98;99633.75;5031075;28;20047;-49
2021/08/24 08:22:01;;;;;;;8.98;5.53;;;;;;;34.14;26.71;99636.03;5031018;28;20051;-49
2021/08/24 08:24:27;;;;;;;6.90;5.38;;;;;;;34.02;27.03;99638.94;5031058;28;20018;-49
2021/08/24 08:26:53;;;;;;;7.65;5.10;;;;;;;34.17;26.60;99629.81;5030541;28;20025;-50
2021/08/24 08:29:18;;;;;;;10.50;5.30;;;;;;;33.59;27.21;99630.56;5030790;28;20124;-50
2021/08/24 08:31:43;;;;;;;9.60;5.30;;;;;;;34.15;27.17;99626.59;5030373;28;20036;-51
2021/08/24 08:34:10;;;;;;;10.35;5.18;;;;;;;33.95;27.08;99630.50;5012850;28;20052;-50
2021/08/24 08:36:36;;;;;;;10.75;5.05;;;;;;;34.06;26.31;99628.75;5029440;28;20053;-51
2021/08/24 08:39:01;;;;;;;9.65;5.15;;;;;;;33.80;26.16;99621.19;5031046;28;20062;-48
2021/08/24 08:41:35;;;;;;;7.57;4.70;;;;;;;33.74;25.65;99617.91;5030403;28;20034;-51
2021/08/24 08:44:09;;;;;;;7.00;4.65;;;;;;;34.17;25.28;99616.00;5029475;28;20035;-50
2021/08/24 08:46:39;;;;;;;12.43;4.97;;;;;;;33.85;26.01;99621.69;5030685;28;20044;-52
2021/08/24 08:49:34;;;;;;;9.10;5.10;;;;;;;33.83;25.56;99618.50;5030687;28;20033;-49
2021/08/24 08:52:11;;;;;;;7.35;4.80;;;;;;;34.02;25.92;99611.34;5025251;28;20042;-48
2021/08/24 08:55:10;;;;;;;7.40;4.93;;;;;;;33.64;25.24;99612.94;5030143;28;20029;-49
2021/08/24 08:57:52;;;;;;;7.40;4.80;;;;;;;33.05;26.27;99607.28;5030101;28;20477;-50
2021/08/24 09:00:20;;;;;;;7.47;4.78;;;;;;;33.49;26.01;99603.53;5013865;28;20116;-52
2021/08/24 09:02:49;;;;;;;5.63;4.45;;;;;;;33.84;24.82;99611.00;5028981;28;20086;-52
2021/08/24 09:05:15;;;;;;;;;;;;;;;35.07;23.57;99598.16;5030602;28;20501;-52
2021/08/24 09:07:41;;;;;;;7.40;5.03;;;;;;;34.26;24.44;99599.22;5012466;28;20408;-52
2021/08/24 09:10:14;;;;;;;9.15;5.28;;;;;;;33.68;25.22;99598.09;5030319;28;20035;-50
2021/08/24 09:12:39;;;;;;;8.00;4.78;;;;;;;33.52;25.36;99597.31;5028804;28;20047;-52
2021/08/24 09:15:07;;;;;;;7.68;4.90;;;;;;;34.27;24.21;99593.31;5030151;28;20100;-53
2021/08/24 09:17:37;;;;;;;6.32;4.80;;;;;;;34.19;24.95;99590.78;5012010;28;20037;-53
2021/08/24 09:20:13;;;;;;;6.03;4.80;;;;;;;34.13;24.95;99587.50;5028876;28;20037;-51
2021/08/24 09:22:40;;;;;;;6.78;4.70;;;;;;;34.22;24.67;99582.56;5030455;28;20045;-52
2021/08/24 09:25:08;;;;;;;6.63;4.75;;;;;;;34.38;24.09;99584.41;5033146;28;20017;-50
2021/08/24 09:27:55;;;;;;;7.47;5.20;;;;;;;34.63;23.62;99566.31;5048892;28;20032;-51
2021/08/24 09:30:21;;;;;;;8.05;4.50;;;;;;;34.74;23.67;99580.31;5050133;28;20295;-52
2021/08/24 09:32:47;;;;;;;5.38;4.47;;;;;;;34.19;23.05;99575.00;5049790;28;20036;-49
2021/08/24 09:35:18;;;;;;;8.32;4.22;;;;;;;34.42;23.06;99565.94;5049691;28;20067;-48
2021/08/24 09:37:43;;;;;;;6.75;4.50;;;;;;;35.74;22.36;99569.88;5049880;28;20194;-51
2021/08/24 09:40:10;;;;;;;5.68;4.53;;;;;;;35.44;21.59;99559.59;5049801;28;20024;-48
2021/08/24 09:42:44;;;;;;;5.95;4.50;;;;;;;34.73;21.97;99564.09;5049516;28;20040;-47
2021/08/24 09:45:18;;;;;;;6.20;4.65;;;;;;;34.40;22.63;99551.72;5049774;28;20394;-50
2021/08/24 09:47:49;;;;;;;5.90;4.45;;;;;;;34.74;22.66;99560.97;5049572;28;20650;-50
2021/08/24 09:50:15;;;;;;;8.70;4.55;;;;;;;34.52;22.55;99546.00;5048158;28;20090;-50
2021/08/24 09:52:41;;;;;;;6.65;4.45;;;;;;;33.43;22.58;99539.59;5049320;28;20028;-47
2021/08/24 09:55:11;;;;;;;7.95;4.30;;;;;;;33.68;22.43;99553.94;5031408;28;20028;-48
2021/08/24 09:57:38;;;;;;;7.95;4.07;;;;;;;33.93;22.04;99548.13;5047955;28;20115;-50
2021/08/24 10:00:23;;;;;;;8.40;4.25;;;;;;;34.84;20.90;99540.19;5047910;28;20401;-48
2021/08/24 10:02:50;;;;;;;7.15;4.28;;;;;;;34.16;22.43;99528.06;5049446;28;20044;-50
2021/08/24 10:05:21;;;;;;;6.63;4.38;;;;;;;34.29;21.83;99532.22;5049616;28;20082;-48
2021/08/24 10:07:54;;;;;;;8.68;4.40;;;;;;;34.30;22.27;99527.50;5049304;28;20072;-51
2021/08/24 10:10:34;;;;;;;7.20;4.13;;;;;;;34.73;20.73;99536.47;5032794;28;20458;-52
2021/08/24 10:13:02;;;;;;;5.68;4.07;;;;;;;34.36;20.97;99524.03;5052580;28;20390;-50
2021/08/24 10:15:35;;;;;;;6.90;4.70;;;;;;;34.06;21.55;99527.47;5051565;28;20029;-49
2021/08/24 10:18:23;;;;;;;5.65;3.95;;;;;;;34.21;21.37;99520.22;5052634;28;20029;-49
2021/08/24 10:20:53;;;;;;;5.03;4.15;;;;;;;34.74;21.64;99524.25;5052745;28;20024;-49
2021/08/24 10:23:42;;;;;;;5.57;3.90;;;;;;;34.35;21.42;99508.66;5052870;28;20107;-48
2021/08/24 10:26:23;;;;;;;8.33;4.53;;;;;;;33.42;22.16;99520.69;5037659;28;20072;-48
2021/08/24 10:28:59;;;;;;;7.95;4.80;;;;;;;33.09;23.13;99511.72;5051755;28;20271;-48
2021/08/24 10:31:33;;;;;;;8.45;4.47;;;;;;;34.05;22.55;99517.56;5051570;28;20112;-48
2021/08/24 10:34:02;;;;;;;8.35;4.43;;;;;;;34.14;22.44;99505.47;5053276;28;20058;-51
2021/08/24 10:36:45;;;;;;;7.95;4.18;;;;;;;34.39;20.94;99506.72;5051264;28;20029;-51
2021/08/24 10:39:22;;;;;;;6.07;5.07;;;;;;;34.40;21.65;99511.06;5052819;28;20036;-50
2021/08/24 10:41:49;;;;;;;6.25;4.07;;;;;;;34.51;20.11;99502.97;5052604;28;20481;-51
2021/08/24 10:44:14;;;;;;;6.38;3.70;;;;;;;35.21;19.25;99504.41;5052593;28;20031;-50
2021/08/24 10:46:52;;;;;;;5.95;3.90;;;;;;;34.58;20.00;99496.78;5052573;28;20095;-48
2021/08/24 10:49:18;;;;;;;5.40;3.60;;;;;;;34.65;19.50;99489.38;5052791;28;20187;-47
2021/08/24 10:52:14;;;;;;;7.82;4.00;;;;;;;35.14;19.53;99493.22;5052361;28;20373;-51
2021/08/24 10:55:08;;;;;;;5.25;3.90;;;;;;;34.93;18.79;99499.25;5039406;28;20044;-49
2021/08/24 10:57:44;;;;;;;8.40;4.18;;;;;;;33.75;20.09;99484.31;5052396;28;20033;-48
2021/08/24 11:00:31;;;;;;;5.43;3.90;;;;;;;33.61;19.93;99471.03;5052249;28;20455;-49
2021/08/24 11:02:59;;;;;;;4.63;3.63;;;;;;;33.97;20.01;99479.97;5051401;28;20070;-50
2021/08/24 11:06:03;;;;;;;4.13;3.50;;;;;;;34.19;19.23;99483.13;5052104;28;20028;-51
2021/08/24 11:09:00;;;;;;;7.82;3.80;;;;;;;34.49;18.98;99480.44;5020206;28;20048;-50
2021/08/24 11:11:37;;;;;;;5.32;3.47;;;;;;;34.99;18.64;99472.88;5052224;28;20044;-49
2021/08/24 11:14:31;;;;;;;5.28;4.07;;;;;;;35.01;18.67;99476.09;5051719;28;20025;-50
2021/08/24 11:17:27;;;;;;;6.60;3.53;;;;;;;35.23;17.57;99468.88;5051919;28;20087;-48
2021/08/24 11:20:11;;;;;;;5.28;3.58;;;;;;;34.72;17.63;99460.28;5050678;28;20438;-49
2021/08/24 11:22:57;;;;;;;4.82;3.60;;;;;;;34.83;18.17;99464.00;5050969;28;20021;-51
2021/08/24 11:25:41;;;;;;;5.93;3.70;;;;;;;34.74;18.19;99466.25;5046442;28;20029;-49
2021/08/24 11:28:19;;;;;;;3.80;3.40;;;;;;;34.78;18.46;99456.81;5031615;28;20044;-52
2021/08/24 11:30:47;;;;;;;6.25;3.45;;;;;;;35.24;18.31;99461.38;5031643;28;20492;-51
2021/08/24 11:33:25;;;;;;;4.28;3.38;;;;;;;35.44;17.64;99448.97;5030420;28;20033;-52
2021/08/24 11:35:58;;;;;;;6.25;3.63;;;;;;;35.56;17.97;99447.09;5013952;28;20078;-47
2021/08/24 11:38:27;;;;;;;5.30;3.75;;;;;;;36.12;16.37;99453.56;5030407;28;20053;-49
2021/08/24 11:40:54;;;;;;;4.95;3.60;;;;;;;35.63;16.59;99447.19;5030401;28;20041;-51
2021/08/24 11:43:51;;;;;;;5.15;3.50;;;;;;;35.79;16.41;99446.97;5029634;28;20030;-49